Time;durP1;ratioP1;P1;durP2;ratioP2;P2;SDS_P1;SDS_P2;PMS_P1;PMS_P2;Temp;Humidity;BMP_temperature;BMP_pressure;BME280_temperature;BME280_humidity;BME280_pressure;Samples;Min_cycle;Max_cycle;Signal;HPM_P1;HPM_P2
2022/12/21 00:05:45;;;;;;;55.08;17.58;;;7.60;99.90;;;;;;6217366;23;20203;-78
2022/12/21 00:08:14;;;;;;;66.93;18.75;;;7.70;99.90;;;;;;6134847;23;20411;-78
2022/12/21 00:24:17;;;;;;;75.88;18.48;;;9.40;99.90;;;;;;6203829;23;20020;-79
2022/12/21 00:26:44;;;;;;;88.25;20.30;;;7.30;99.90;;;;;;6145801;23;20064;-79
2022/12/21 00:29:10;;;;;;;63.55;18.10;;;8.40;99.90;;;;;;6265252;22;20244;-79
2022/12/21 00:31:42;;;;;;;71.22;18.95;;;8.50;99.90;;;;;;6263481;22;20042;-79
2022/12/21 00:34:12;;;;;;;90.15;18.33;;;8.20;99.90;;;;;;6237006;22;20014;-79
2022/12/21 00:36:38;;;;;;;91.57;18.70;;;8.10;99.90;;;;;;6261523;22;20045;-79
2022/12/21 00:39:23;;;;;;;;;;;;;;;;;;;;;
2022/12/21 00:42:00;;;;;;;;;;;;;;;;;;;;;
2022/12/21 00:44:38;;;;;;;148.82;19.65;;;8.40;99.90;;;;;;6259580;22;20007;-78
2022/12/21 00:47:16;;;;;;;156.90;20.90;;;7.40;99.90;;;;;;6287268;22;20014;-79
2022/12/21 00:49:49;;;;;;;171.82;22.27;;;9.30;99.90;;;;;;6261910;22;20018;-79
2022/12/21 00:52:20;;;;;;;160.27;20.58;;;8.30;99.90;;;;;;6261033;22;20312;-79
2022/12/21 00:54:48;;;;;;;207.60;22.73;;;8.20;99.90;;;;;;6260695;22;20125;-77
2022/12/21 00:58:09;;;;;;;227.32;24.77;;;8.30;99.90;;;;;;6285666;22;20015;-78
2022/12/21 01:00:06;;;;;;;149.48;21.70;;;8.30;99.90;;;;;;6264939;22;20083;-78
2022/12/21 01:02:31;;;;;;;134.07;19.48;;;8.10;99.90;;;;;;6261756;22;20011;-78
2022/12/21 01:04:57;;;;;;;153.80;19.85;;;8.10;99.90;;;;;;6237634;22;20014;-78
2022/12/21 01:07:23;;;;;;;181.43;20.23;;;8.40;99.90;;;;;;6261403;22;20062;-78
2022/12/21 01:09:51;;;;;;;209.60;22.08;;;8.10;99.90;;;;;;6287410;22;20073;-78
2022/12/21 01:12:22;;;;;;;183.88;21.00;;;8.00;99.90;;;;;;6261355;22;20054;-78
2022/12/21 01:14:48;;;;;;;164.85;23.85;;;7.40;99.90;;;;;;6261222;22;20081;-79
2022/12/21 01:17:14;;;;;;;174.93;19.70;;;7.90;99.90;;;;;;6261483;22;20298;-79
2022/12/21 01:19:40;;;;;;;99.45;18.00;;;8.10;99.90;;;;;;6262312;22;20015;-78
2022/12/21 01:22:11;;;;;;;101.70;16.42;;;8.20;99.90;;;;;;6259503;22;20248;-78
2022/12/21 01:24:39;;;;;;;95.85;15.73;;;8.00;99.90;;;;;;6260378;22;20046;-79
2022/12/21 01:27:05;;;;;;;105.47;18.30;;;7.80;99.90;;;;;;6262118;22;20019;-79
2022/12/21 01:29:31;;;;;;;99.43;16.27;;;8.10;99.90;;;;;;6235874;22;20484;-79
2022/12/21 01:31:59;;;;;;;106.25;17.52;;;8.10;99.90;;;;;;6236552;22;20030;-79
2022/12/21 01:34:25;;;;;;;98.18;16.35;;;7.80;99.90;;;;;;6260906;22;20011;-80
2022/12/21 01:36:53;;;;;;;71.93;13.63;;;7.70;99.90;;;;;;6262119;22;20043;-81
2022/12/21 01:39:19;;;;;;;116.70;15.90;;;7.80;99.90;;;;;;6235837;22;20241;-77
2022/12/21 01:41:45;;;;;;;110.32;16.90;;;7.60;99.90;;;;;;6218977;22;20019;-77
2022/12/21 01:44:53;;;;;;;81.90;13.90;;;7.80;99.90;;;;;;6204605;22;20071;-78
2022/12/21 01:47:25;;;;;;;85.95;14.38;;;8.20;99.90;;;;;;6253669;22;20078;-78
2022/12/21 01:49:56;;;;;;;89.53;14.40;;;7.80;99.90;;;;;;6231449;22;20015;-79
2022/12/21 01:52:23;;;;;;;126.32;15.52;;;7.90;99.90;;;;;;6231087;22;20211;-79
2022/12/21 01:55:00;;;;;;;94.43;14.05;;;7.60;99.90;;;;;;6181393;22;20020;-80
2022/12/21 01:57:29;;;;;;;126.50;16.85;;;7.60;99.90;;;;;;6230858;22;20022;-81
2022/12/21 01:59:58;;;;;;;130.35;16.13;;;7.60;99.90;;;;;;6257083;22;20395;-79
2022/12/21 02:02:30;;;;;;;103.43;16.73;;;7.60;99.90;;;;;;6229662;22;20034;-79
2022/12/21 02:05:06;;;;;;;127.78;16.40;;;7.50;99.90;;;;;;6256421;22;20225;-79
2022/12/21 02:07:33;;;;;;;135.00;15.27;;;7.60;99.90;;;;;;6231481;22;20027;-79
2022/12/21 02:09:59;;;;;;;158.43;17.52;;;7.70;99.90;;;;;;6205593;22;20101;-78
2022/12/21 02:12:25;;;;;;;108.15;15.13;;;7.80;99.90;;;;;;6229935;22;20020;-79
2022/12/21 02:14:51;;;;;;;93.68;15.18;;;7.60;99.90;;;;;;6180357;22;20340;-78
2022/12/21 02:18:22;;;;;;;103.90;15.23;;;7.70;99.90;;;;;;6205263;22;20008;-78
2022/12/21 02:21:02;;;;;;;110.97;14.93;;;6.10;99.90;;;;;;6161725;22;20050;-77
2022/12/21 02:23:47;;;;;;;154.10;16.30;;;7.70;99.90;;;;;;6228674;22;20068;-77
2022/12/21 02:26:44;;;;;;;133.68;16.00;;;7.70;99.90;;;;;;6229630;22;20011;-78
2022/12/21 02:29:43;;;;;;;146.55;15.18;;;7.50;99.90;;;;;;6231106;22;20043;-79
2022/12/21 02:32:53;;;;;;;148.30;16.33;;;7.50;99.90;;;;;;6230453;22;20011;-79
2022/12/21 02:35:54;;;;;;;128.38;16.02;;;7.50;99.90;;;;;;6196828;22;20011;-79
2022/12/21 02:38:31;;;;;;;137.63;16.00;;;7.60;99.90;;;;;;6220315;22;20022;-76
2022/12/21 02:40:57;;;;;;;135.48;15.18;;;7.50;99.90;;;;;;6237676;22;20023;-78
2022/12/21 02:46:49;;;;;;;172.20;16.90;;;7.50;99.90;;;;;;6286388;22;20045;-78
2022/12/21 02:49:19;;;;;;;185.77;16.58;;;6.70;99.90;;;;;;6260542;22;20011;-78
2022/12/21 02:52:01;;;;;;;121.00;14.80;;;7.40;99.90;;;;;;6286138;22;20019;-78
2022/12/21 02:54:27;;;;;;;121.85;14.68;;;7.60;99.90;;;;;;6286263;22;20011;-78
2022/12/21 02:56:55;;;;;;;123.15;15.15;;;7.20;99.90;;;;;;6234167;22;20014;-78
2022/12/21 02:59:27;;;;;;;98.30;14.50;;;7.30;99.90;;;;;;6285431;22;20021;-76
2022/12/21 03:02:49;;;;;;;179.38;17.42;;;7.50;99.90;;;;;;6258622;22;20285;-77
2022/12/21 03:06:02;;;;;;;186.73;17.80;;;7.20;99.90;;;;;;6257666;22;20070;-77
2022/12/21 03:08:39;;;;;;;186.73;16.40;;;7.20;99.90;;;;;;6198687;22;20219;-76
2022/12/21 03:11:33;;;;;;;153.73;15.10;;;7.20;99.90;;;;;;6259759;22;20246;-77
2022/12/21 03:14:20;;;;;;;227.40;17.80;;;7.10;99.90;;;;;;6264731;22;20026;-77
2022/12/21 03:16:57;;;;;;;132.48;15.38;;;7.30;99.90;;;;;;6286412;22;20071;-77
2022/12/21 03:20:20;;;;;;;136.75;16.08;;;7.50;99.90;;;;;;6255985;22;20018;-76
2022/12/21 03:23:04;;;;;;;146.68;13.35;;;7.30;99.90;;;;;;6257819;22;20042;-78
2022/12/21 03:26:24;;;;;;;163.10;14.65;;;7.20;99.90;;;;;;6260223;22;20010;-77
2022/12/21 03:32:08;;;;;;;159.90;14.98;;;7.20;99.90;;;;;;6283130;22;20304;-77
2022/12/21 03:35:12;;;;;;;92.40;12.85;;;7.40;99.90;;;;;;6284224;22;20014;-78
2022/12/21 03:42:43;;;;;;;;;;;;;;;;;;;;;
2022/12/21 04:00:29;;;;;;;;;;;;;;;;;;;;;
2022/12/21 04:04:24;;;;;;;58.63;9.90;;;7.30;99.90;;;;;;5962876;23;20011;-78
2022/12/21 04:28:42;;;;;;;82.95;9.45;;;7.80;99.90;;;;;;6133323;23;20251;-79
2022/12/21 04:43:21;;;;;;;139.57;10.88;;;6.60;99.90;;;;;;5793757;24;20037;-78
2022/12/21 04:46:06;;;;;;;101.80;10.23;;;6.50;99.90;;;;;;5916079;23;20054;-78
2022/12/21 04:49:11;;;;;;;;;;;;;;;;;;;;;
2022/12/21 04:52:04;;;;;;;109.00;10.25;;;5.60;99.90;;;;;;6052019;23;20025;-78
2022/12/21 04:58:34;;;;;;;119.15;10.48;;;6.20;99.90;;;;;;6155667;23;20032;-78
2022/12/21 05:01:34;;;;;;;118.85;9.85;;;7.00;99.90;;;;;;6162305;23;20035;-78
2022/12/21 05:04:05;;;;;;;92.13;8.38;;;7.00;99.90;;;;;;6139412;23;20013;-78
2022/12/21 05:06:31;;;;;;;123.70;10.77;;;6.90;99.90;;;;;;6177242;22;20326;-78
2022/12/21 05:08:57;;;;;;;96.53;10.07;;;6.60;99.90;;;;;;6229789;22;20051;-78
2022/12/21 05:11:23;;;;;;;92.82;9.45;;;6.80;99.90;;;;;;6255782;22;20073;-78
2022/12/21 05:29:35;;;;;;;133.88;10.80;;;7.10;99.90;;;;;;5987537;23;20018;-77
2022/12/21 05:37:06;;;;;;;;;;;;;;;;;;;;;
2022/12/21 05:39:55;;;;;;;131.70;11.52;;;7.60;99.90;;;;;;5950951;24;20031;-77
2022/12/21 05:55:46;;;;;;;72.43;8.95;;;6.80;99.90;;;;;;5822990;24;20126;-78
2022/12/21 05:58:30;;;;;;;89.05;10.32;;;7.40;99.90;;;;;;5909486;24;20063;-77
2022/12/21 06:00:58;;;;;;;129.85;11.93;;;7.10;99.90;;;;;;5948714;23;20088;-77
2022/12/21 06:03:24;;;;;;;104.15;10.73;;;6.30;99.90;;;;;;6104960;23;20017;-77
2022/12/21 06:06:03;;;;;;;103.13;10.00;;;6.70;99.90;;;;;;6116346;22;20053;-77
2022/12/21 06:08:30;;;;;;;113.63;10.50;;;6.40;99.90;;;;;;6236017;22;20038;-77
2022/12/21 06:11:10;;;;;;;112.68;11.48;;;6.90;99.90;;;;;;6260734;22;20019;-77
2022/12/21 06:13:48;;;;;;;55.13;7.68;;;6.70;99.90;;;;;;6260441;22;20011;-77
2022/12/21 06:16:22;;;;;;;97.93;10.85;;;5.40;99.90;;;;;;6260427;22;20015;-77
2022/12/21 06:18:49;;;;;;;88.75;11.15;;;7.30;99.90;;;;;;6261015;22;20046;-77
2022/12/21 06:21:21;;;;;;;82.80;12.00;;;6.80;99.90;;;;;;6261577;22;20011;-77
2022/12/21 06:24:44;;;;;;;89.70;12.02;;;7.00;99.90;;;;;;6210022;22;20015;-78
2022/12/21 06:27:54;;;;;;;93.95;12.18;;;5.90;99.90;;;;;;6108767;23;20315;-78
2022/12/21 06:39:03;;;;;;;119.25;14.50;;;5.90;99.90;;;;;;5898938;23;20101;-78
2022/12/21 06:42:29;;;;;;;71.25;11.75;;;7.00;99.90;;;;;;6068127;23;20018;-80
2022/12/21 06:45:26;;;;;;;108.35;11.85;;;7.60;99.90;;;;;;5929477;24;20102;-79
2022/12/21 06:47:54;;;;;;;113.72;12.63;;;7.10;99.90;;;;;;5941627;23;20016;-79
2022/12/21 06:50:21;;;;;;;124.63;12.73;;;7.00;99.90;;;;;;5990565;23;20067;-79
2022/12/21 06:52:48;;;;;;;88.68;12.85;;;6.80;99.90;;;;;;6073746;23;20204;-79
2022/12/21 07:22:59;;;;;;;79.20;11.82;;;7.80;99.90;;;;;;6115321;23;20028;-79
2022/12/21 07:37:16;;;;;;;120.95;16.73;;;7.30;99.90;;;;;;5888918;24;20020;-79
2022/12/21 07:39:51;;;;;;;85.47;14.50;;;6.90;99.90;;;;;;5930312;24;20384;-78
2022/12/21 07:42:41;;;;;;;128.52;16.98;;;7.10;99.90;;;;;;6121939;23;20009;-80
2022/12/21 07:45:09;;;;;;;102.95;15.95;;;7.10;99.90;;;;;;6242529;22;20042;-78
2022/12/21 07:47:38;;;;;;;99.97;16.77;;;7.20;99.90;;;;;;6255105;22;20043;-78
2022/12/21 08:07:52;;;;;;;82.70;17.48;;;6.10;99.90;;;;;;6187515;23;20024;-77
2022/12/21 08:10:20;;;;;;;107.72;17.60;;;7.00;99.90;;;;;;6140334;23;20013;-77
2022/12/21 08:16:56;;;;;;;;;;;;;;;;;;;;;
2022/12/21 08:19:43;;;;;;;105.57;17.75;;;7.60;99.90;;;;;;6285530;22;20029;-75
2022/12/21 08:22:35;;;;;;;;;;;;;;;;;;;;;
2022/12/21 08:25:16;;;;;;;110.47;19.65;;;7.10;99.90;;;;;;6283432;22;20007;-77
2022/12/21 08:27:55;;;;;;;133.90;22.35;;;7.00;99.90;;;;;;6259556;22;20037;-76
2022/12/21 08:30:21;;;;;;;110.90;19.45;;;6.20;99.90;;;;;;6259451;22;20015;-76
2022/12/21 08:32:47;;;;;;;206.52;26.42;;;7.10;99.90;;;;;;6282964;22;20266;-74
2022/12/21 08:35:13;;;;;;;157.73;22.83;;;7.50;99.90;;;;;;6233320;22;20278;-76
2022/12/21 08:37:41;;;;;;;192.80;25.33;;;7.10;99.90;;;;;;6260058;22;20209;-77
2022/12/21 08:40:15;;;;;;;157.02;24.40;;;7.70;99.90;;;;;;6262730;22;20038;-75
2022/12/21 08:42:46;;;;;;;162.88;24.50;;;7.30;99.90;;;;;;6261539;22;20007;-76
2022/12/21 08:45:20;;;;;;;161.85;23.75;;;7.20;99.90;;;;;;6215638;22;20038;-77
2022/12/21 08:47:48;;;;;;;152.20;23.67;;;7.60;99.90;;;;;;6232435;22;20024;-76
2022/12/21 08:57:39;;;;;;;172.13;25.52;;;7.20;99.90;;;;;;6219953;23;20202;-76
2022/12/21 09:00:09;;;;;;;147.57;24.98;;;7.40;99.90;;;;;;6195068;23;20072;-75
2022/12/21 09:02:36;;;;;;;153.82;26.42;;;8.30;99.90;;;;;;6179958;22;20016;-76
2022/12/21 09:05:04;;;;;;;145.63;25.02;;;7.40;99.90;;;;;;6230759;22;20008;-76
2022/12/21 09:07:59;;;;;;;169.90;25.70;;;7.90;99.90;;;;;;6232300;22;20011;-78
2022/12/21 09:10:25;;;;;;;157.23;28.17;;;8.00;99.90;;;;;;6231177;22;20472;-76
2022/12/21 09:12:54;;;;;;;130.50;24.08;;;7.70;99.90;;;;;;6255963;22;20027;-75
2022/12/21 09:15:20;;;;;;;105.82;22.42;;;7.60;99.90;;;;;;6255131;22;20016;-77
2022/12/21 09:17:49;;;;;;;121.45;26.70;;;7.60;99.90;;;;;;6255612;22;20012;-76
2022/12/21 09:20:20;;;;;;;127.05;25.55;;;7.50;99.90;;;;;;6256413;22;20008;-77
2022/12/21 09:27:04;;;;;;;101.00;21.77;;;7.60;99.90;;;;;;6182802;23;20024;-79
2022/12/21 09:30:27;;;;;;;;;;;;;;;;;;;;;
2022/12/21 09:33:17;;;;;;;111.10;23.63;;;8.20;99.90;;;;;;6187166;23;20040;-78
2022/12/21 09:36:19;;;;;;;;;;;;;;;;;;;;;
2022/12/21 09:43:11;;;;;;;103.50;25.83;;;8.20;99.90;;;;;;6099054;23;20222;-76
2022/12/21 09:46:41;;;;;;;86.68;23.00;;;7.70;99.90;;;;;;6105270;23;20236;-76
2022/12/21 09:49:49;;;;;;;90.85;23.40;;;7.60;99.90;;;;;;6036378;23;20222;-76
2022/12/21 09:53:11;;;;;;;;;;;;;;;;;;;;;
2022/12/21 09:56:41;;;;;;;;;;;;;;;;;;;;;
2022/12/21 10:00:07;;;;;;;76.47;21.75;;;7.40;99.90;;;;;;6082502;23;20425;-76
2022/12/21 10:03:01;;;;;;;85.63;24.98;;;7.80;99.90;;;;;;6115386;23;20008;-77
2022/12/21 10:06:09;;;;;;;85.95;22.75;;;6.70;99.90;;;;;;6196545;23;20077;-73
2022/12/21 10:08:49;;;;;;;82.60;23.27;;;8.10;99.90;;;;;;6168859;23;20024;-77
2022/12/21 10:11:51;;;;;;;70.75;22.23;;;7.80;99.90;;;;;;6169145;23;20020;-77
2022/12/21 10:14:48;;;;;;;82.88;22.90;;;7.90;99.90;;;;;;6168390;23;20060;-75
2022/12/21 10:17:32;;;;;;;85.38;22.85;;;7.70;99.90;;;;;;6192026;23;20208;-78
2022/12/21 10:20:22;;;;;;;78.85;23.58;;;7.80;99.90;;;;;;6191965;22;20031;-77
2022/12/21 10:23:19;;;;;;;69.75;21.20;;;8.30;99.90;;;;;;6229771;22;20020;-76
2022/12/21 10:25:58;;;;;;;73.15;23.50;;;7.90;99.90;;;;;;6254837;22;20015;-75
2022/12/21 10:28:38;;;;;;;80.20;24.48;;;8.20;99.90;;;;;;6229512;22;20015;-77
2022/12/21 10:31:06;;;;;;;74.20;23.73;;;8.10;99.90;;;;;;6254487;22;20106;-75
2022/12/21 10:33:37;;;;;;;71.35;22.95;;;8.20;99.90;;;;;;6254890;22;20343;-75
2022/12/21 10:36:04;;;;;;;64.07;21.75;;;8.30;99.90;;;;;;6228494;22;20022;-74
2022/12/21 10:38:33;;;;;;;60.45;23.23;;;8.10;99.90;;;;;;6254131;22;20101;-73
2022/12/21 10:41:04;;;;;;;66.53;23.60;;;8.30;99.90;;;;;;6229295;22;20372;-71
2022/12/21 10:43:37;;;;;;;72.43;22.08;;;8.10;99.90;;;;;;6229990;22;20067;-73
2022/12/21 10:46:03;;;;;;;67.53;23.40;;;8.60;99.90;;;;;;6246881;22;20323;-73
2022/12/21 10:48:29;;;;;;;60.47;21.77;;;7.90;99.90;;;;;;6259063;22;20019;-73
2022/12/21 10:50:59;;;;;;;58.13;21.48;;;8.40;99.90;;;;;;6259623;22;20011;-73
2022/12/21 10:53:27;;;;;;;63.78;22.20;;;8.60;99.90;;;;;;6261124;22;20250;-73
2022/12/21 10:55:57;;;;;;;61.97;24.77;;;8.10;99.90;;;;;;6259317;22;20341;-74
2022/12/21 10:58:31;;;;;;;54.63;22.90;;;7.90;99.90;;;;;;6258097;22;20033;-78
2022/12/21 11:01:29;;;;;;;51.83;20.85;;;8.00;99.90;;;;;;6258364;22;20015;-78
2022/12/21 11:04:27;;;;;;;55.17;22.90;;;7.90;99.90;;;;;;6282906;22;20298;-77
2022/12/21 11:07:49;;;;;;;51.30;21.83;;;8.40;99.90;;;;;;6283264;22;20181;-77
2022/12/21 11:10:28;;;;;;;43.63;20.25;;;8.60;99.90;;;;;;6131012;23;20057;-78
2022/12/21 11:12:54;;;;;;;46.17;21.40;;;8.60;99.90;;;;;;6131476;23;20013;-76
2022/12/21 11:15:22;;;;;;;45.08;20.08;;;8.20;99.90;;;;;;6205004;22;20015;-78
2022/12/21 11:17:50;;;;;;;36.75;17.75;;;8.60;99.90;;;;;;6283219;22;20026;-77
2022/12/21 11:20:19;;;;;;;43.88;17.48;;;8.70;99.90;;;;;;6259927;22;20183;-76
2022/12/21 11:22:53;;;;;;;38.95;18.55;;;8.80;99.90;;;;;;6284859;22;20014;-78
2022/12/21 11:29:28;;;;;;;34.08;16.75;;;9.30;99.90;;;;;;6181887;23;20271;-78
2022/12/21 11:31:56;;;;;;;35.70;15.27;;;9.60;99.90;;;;;;6208792;22;20060;-76
2022/12/21 11:38:08;;;;;;;29.63;14.73;;;8.50;99.90;;;;;;6309678;22;20014;-78
2022/12/21 11:41:12;;;;;;;34.47;15.68;;;9.80;99.90;;;;;;6258674;22;20238;-78
2022/12/21 11:43:48;;;;;;;35.92;14.73;;;9.20;99.90;;;;;;6255959;22;20385;-79
2022/12/21 11:46:32;;;;;;;36.85;15.63;;;10.00;99.90;;;;;;6284618;22;20015;-79
2022/12/21 11:52:49;;;;;;;30.65;13.55;;;9.70;99.90;;;;;;6160605;22;20017;-76
2022/12/21 11:55:23;;;;;;;29.95;14.45;;;10.30;99.90;;;;;;6259630;22;20065;-75
2022/12/21 11:57:49;;;;;;;31.17;15.02;;;10.30;99.90;;;;;;6283602;22;20020;-76
2022/12/21 12:00:33;;;;;;;32.25;14.15;;;10.50;99.90;;;;;;6284961;22;20008;-77
2022/12/21 12:03:26;;;;;;;27.63;13.48;;;10.60;99.90;;;;;;6258475;22;20254;-76
2022/12/21 12:06:19;;;;;;;33.47;14.38;;;9.80;99.90;;;;;;6283526;22;20346;-76
2022/12/21 12:09:37;;;;;;;30.95;13.32;;;10.50;99.90;;;;;;6258382;22;20046;-76
2022/12/21 12:12:22;;;;;;;31.20;14.15;;;10.40;99.90;;;;;;6257460;22;20195;-78
2022/12/21 12:14:56;;;;;;;30.98;13.88;;;9.70;99.90;;;;;;6286431;22;20083;-76
2022/12/21 12:17:52;;;;;;;31.45;12.57;;;9.50;99.90;;;;;;6260191;22;20026;-75
2022/12/21 12:20:35;;;;;;;29.35;13.13;;;9.30;99.90;;;;;;6258527;22;20007;-76
2022/12/21 12:23:23;;;;;;;33.17;13.77;;;9.00;99.90;;;;;;6259627;22;20329;-75
2022/12/21 12:26:21;;;;;;;35.53;13.98;;;8.90;99.90;;;;;;6260226;22;20011;-76
2022/12/21 12:29:25;;;;;;;26.40;11.95;;;8.90;99.90;;;;;;6260814;22;20346;-76
2022/12/21 12:32:42;;;;;;;29.73;13.00;;;8.80;99.90;;;;;;6261227;22;20015;-76
2022/12/21 12:35:40;;;;;;;30.60;11.90;;;8.80;99.90;;;;;;6196692;22;20452;-75
2022/12/21 12:38:15;;;;;;;32.95;13.15;;;8.70;99.90;;;;;;6259027;22;20011;-77
2022/12/21 12:41:08;;;;;;;25.58;12.20;;;8.60;99.90;;;;;;6260762;22;20003;-78
2022/12/21 12:43:43;;;;;;;29.25;11.73;;;8.60;99.90;;;;;;6260941;22;20007;-72
2022/12/21 12:46:16;;;;;;;34.92;11.93;;;8.70;99.90;;;;;;6286204;22;20109;-73
2022/12/21 12:49:09;;;;;;;26.15;11.38;;;8.60;99.90;;;;;;6259829;22;20273;-73
2022/12/21 12:51:53;;;;;;;29.85;11.20;;;8.60;99.90;;;;;;6287092;22;20011;-73
2022/12/21 12:54:53;;;;;;;23.67;10.27;;;8.70;99.90;;;;;;6284871;22;20046;-73
2022/12/21 13:01:59;;;;;;;28.95;12.07;;;8.70;99.90;;;;;;6069664;23;20141;-73
2022/12/21 13:04:28;;;;;;;25.85;10.70;;;8.60;99.90;;;;;;6022862;23;20022;-73
2022/12/21 13:07:23;;;;;;;32.22;12.50;;;7.80;99.90;;;;;;6271307;22;20015;-73
2022/12/21 13:09:57;;;;;;;28.17;12.98;;;8.60;99.90;;;;;;6260645;22;20128;-72
2022/12/21 13:12:50;;;;;;;28.15;12.88;;;8.60;99.90;;;;;;6285796;22;20643;-72
2022/12/21 13:15:37;;;;;;;27.95;12.27;;;8.70;99.90;;;;;;6285691;22;20007;-72
2022/12/21 13:18:17;;;;;;;34.42;14.82;;;8.70;99.90;;;;;;6286170;22;20018;-72
2022/12/21 13:20:49;;;;;;;35.47;14.10;;;8.60;99.90;;;;;;6284135;22;20003;-74
2022/12/21 13:23:29;;;;;;;27.70;12.48;;;8.70;99.90;;;;;;6284674;22;20042;-75
2022/12/21 13:26:26;;;;;;;28.42;13.77;;;8.70;99.90;;;;;;6285043;22;20080;-76
2022/12/21 13:29:23;;;;;;;;;;;;;;;;;;;;;
2022/12/21 13:32:22;;;;;;;30.83;14.52;;;8.70;99.90;;;;;;6310944;22;20074;-78
2022/12/21 13:35:27;;;;;;;27.60;13.05;;;8.70;99.90;;;;;;6258596;22;20042;-76
2022/12/21 13:38:16;;;;;;;30.27;14.93;;;8.60;99.90;;;;;;6236771;22;20011;-79
2022/12/21 13:40:49;;;;;;;27.52;14.48;;;8.60;99.90;;;;;;6257540;22;20039;-77
2022/12/21 13:46:50;;;;;;;31.88;16.63;;;8.70;99.90;;;;;;6284669;22;20054;-78
2022/12/21 13:53:04;;;;;;;31.75;17.23;;;8.60;99.90;;;;;;6283545;22;20054;-78
2022/12/21 13:55:57;;;;;;;33.90;16.35;;;8.60;99.90;;;;;;6270839;22;20049;-75
2022/12/21 13:58:43;;;;;;;28.55;16.42;;;8.20;99.90;;;;;;6256253;22;20360;-77
2022/12/21 14:01:37;;;;;;;32.15;17.17;;;8.50;99.90;;;;;;6276221;22;20007;-77
2022/12/21 14:04:21;;;;;;;32.53;16.88;;;8.60;99.90;;;;;;6258039;22;20290;-77
2022/12/21 14:07:01;;;;;;;32.85;17.50;;;8.60;99.90;;;;;;6282730;22;20007;-77
2022/12/21 14:09:51;;;;;;;29.95;17.77;;;8.50;99.90;;;;;;6258445;22;20110;-76
2022/12/21 14:12:39;;;;;;;34.53;17.33;;;7.60;99.90;;;;;;6256846;22;20026;-77
2022/12/21 14:15:44;;;;;;;40.47;17.38;;;8.50;99.90;;;;;;6311000;22;20007;-77
2022/12/21 14:19:20;;;;;;;31.85;17.02;;;8.30;99.90;;;;;;6283984;22;20314;-77
2022/12/21 14:26:09;;;;;;;;;;;;;;;;;;;;;
2022/12/21 14:32:30;;;;;;;27.90;16.90;;;8.30;99.90;;;;;;6180447;22;20026;-77
2022/12/21 14:42:43;;;;;;;32.35;17.50;;;7.60;99.90;;;;;;6307392;22;20041;-77
2022/12/21 14:45:45;;;;;;;;;;;;;;;;;;;;;
2022/12/21 14:48:31;;;;;;;29.15;17.98;;;8.10;99.90;;;;;;6282526;22;20063;-74
2022/12/21 14:51:04;;;;;;;29.25;15.82;;;8.30;99.90;;;;;;6257564;22;20060;-77
2022/12/21 14:53:36;;;;;;;27.88;17.13;;;8.20;99.90;;;;;;6255661;22;20433;-77
2022/12/21 14:56:15;;;;;;;28.58;15.75;;;8.20;99.90;;;;;;6257349;22;20012;-77
2022/12/21 14:58:53;;;;;;;25.90;16.42;;;9.60;99.90;;;;;;6284371;22;20167;-77
2022/12/21 15:01:31;;;;;;;25.92;15.27;;;8.40;99.90;;;;;;6258093;22;20298;-77
2022/12/21 15:04:20;;;;;;;28.27;14.98;;;7.40;99.90;;;;;;6281769;22;20179;-78
2022/12/21 15:07:01;;;;;;;25.17;15.45;;;8.20;99.90;;;;;;6258436;22;20026;-78
2022/12/21 15:09:29;;;;;;;29.77;16.08;;;8.10;99.90;;;;;;6284670;22;20045;-77
2022/12/21 15:12:34;;;;;;;25.33;14.25;;;8.10;99.90;;;;;;6283530;22;20045;-76
2022/12/21 15:15:00;;;;;;;27.30;13.75;;;8.10;99.90;;;;;;6256392;22;20087;-77
2022/12/21 15:17:31;;;;;;;21.67;13.65;;;8.10;99.90;;;;;;6232631;22;20183;-77
2022/12/21 15:20:02;;;;;;;27.50;14.00;;;8.00;99.90;;;;;;6257219;22;20221;-78
2022/12/21 15:30:46;;;;;;;33.15;15.35;;;7.40;99.90;;;;;;5972150;23;20178;-77
2022/12/21 15:33:33;;;;;;;27.67;15.45;;;7.10;99.90;;;;;;6022436;23;20340;-76
2022/12/21 15:36:16;;;;;;;31.50;16.55;;;7.90;99.90;;;;;;6136685;23;20021;-76
2022/12/21 15:38:52;;;;;;;34.53;16.58;;;6.80;99.90;;;;;;6139149;23;20031;-78
2022/12/21 15:41:32;;;;;;;29.85;16.65;;;8.00;99.90;;;;;;6212850;22;20166;-77
2022/12/21 15:44:05;;;;;;;30.35;16.38;;;7.80;99.90;;;;;;6284742;22;20061;-76
2022/12/21 15:47:21;;;;;;;28.77;15.48;;;7.90;99.90;;;;;;6259023;22;20027;-75
2022/12/21 15:50:03;;;;;;;25.98;14.98;;;8.00;99.90;;;;;;6173651;22;20018;-76
2022/12/21 15:53:03;;;;;;;25.05;15.63;;;7.90;99.90;;;;;;6259194;22;20125;-75
2022/12/21 15:55:42;;;;;;;31.08;17.10;;;7.90;99.90;;;;;;6310230;22;20387;-74
2022/12/21 15:58:25;;;;;;;31.23;16.70;;;7.40;99.90;;;;;;6286738;22;20054;-75
2022/12/21 16:00:55;;;;;;;28.25;16.67;;;7.80;99.90;;;;;;6259591;22;20276;-75
2022/12/21 16:03:35;;;;;;;28.38;16.27;;;7.80;99.90;;;;;;6310537;22;20305;-76
2022/12/21 16:06:26;;;;;;;26.15;15.70;;;7.80;99.90;;;;;;6281880;22;20353;-76
2022/12/21 16:12:45;;;;;;;34.35;18.40;;;6.90;99.90;;;;;;6097540;23;20388;-76
2022/12/21 16:15:47;;;;;;;32.42;16.35;;;7.80;99.90;;;;;;6074465;23;20022;-77
2022/12/21 16:18:21;;;;;;;26.08;16.35;;;6.80;99.90;;;;;;6104246;23;20322;-76
2022/12/21 16:20:59;;;;;;;31.52;18.80;;;7.80;99.90;;;;;;6137213;23;20017;-77
2022/12/21 16:23:59;;;;;;;;;;;;;;;;;;;;;
2022/12/21 16:30:23;;;;;;;32.65;17.95;;;7.60;99.90;;;;;;6123462;23;20029;-76
2022/12/21 16:32:57;;;;;;;30.67;17.58;;;7.70;99.90;;;;;;6156014;23;20109;-76
2022/12/21 16:35:29;;;;;;;31.02;17.80;;;7.80;99.90;;;;;;6214939;23;20198;-75
2022/12/21 16:37:57;;;;;;;28.67;17.08;;;6.20;99.90;;;;;;6221541;22;20015;-77
2022/12/21 16:40:41;;;;;;;30.55;19.23;;;7.60;99.90;;;;;;6221413;23;20365;-75
2022/12/21 16:47:13;;;;;;;34.90;19.13;;;7.90;99.90;;;;;;6136610;23;20028;-75
2022/12/21 16:49:57;;;;;;;34.58;19.13;;;7.70;99.90;;;;;;6190053;23;20020;-76
2022/12/21 16:53:01;;;;;;;;;;;;;;;;;;;;;
2022/12/21 16:59:53;;;;;;;37.20;22.80;;;7.80;99.90;;;;;;6155227;23;20101;-76
2022/12/21 17:06:32;;;;;;;38.92;21.10;;;6.80;99.90;;;;;;6098978;23;20021;-75
2022/12/21 17:09:45;;;;;;;37.53;20.70;;;7.60;99.90;;;;;;6099528;23;20018;-77
2022/12/21 17:13:07;;;;;;;32.55;18.02;;;7.60;99.90;;;;;;6022824;23;20019;-78
2022/12/21 17:19:26;;;;;;;38.10;20.83;;;7.80;99.90;;;;;;6061818;23;20022;-76
2022/12/21 17:25:54;;;;;;;42.38;22.58;;;7.60;99.90;;;;;;6227456;22;20022;-77
2022/12/21 17:28:44;;;;;;;;;;;7.70;99.90;;;;;;6231029;22;20066;-77
2022/12/21 17:45:56;;;;;;;41.83;23.73;;;7.90;99.90;;;;;;6187380;23;20197;-77
2022/12/21 17:48:33;;;;;;;42.80;23.98;;;7.70;99.90;;;;;;6149731;23;20028;-76
2022/12/21 17:50:59;;;;;;;37.45;22.88;;;7.70;99.90;;;;;;6162468;23;20080;-77
2022/12/21 17:53:31;;;;;;;48.15;25.13;;;7.70;99.90;;;;;;6230608;22;20329;-77
2022/12/21 17:55:56;;;;;;;39.72;24.88;;;7.70;99.90;;;;;;6232049;22;20018;-76
2022/12/21 17:58:22;;;;;;;39.95;24.13;;;7.70;99.90;;;;;;6284307;22;20011;-76
2022/12/21 18:01:39;;;;;;;40.65;24.67;;;7.70;99.90;;;;;;6285830;22;20014;-78
2022/12/21 18:04:17;;;;;;;37.83;23.40;;;6.80;99.90;;;;;;6232552;22;20007;-77
2022/12/21 18:07:34;;;;;;;;;;;;;;;;;;;;;
2022/12/21 18:11:06;;;;;;;43.53;24.50;;;6.80;99.90;;;;;;6285272;22;20343;-77
2022/12/21 18:14:13;;;;;;;41.75;23.92;;;7.80;99.90;;;;;;6195835;23;20076;-77
2022/12/21 18:20:26;;;;;;;43.40;23.98;;;9.10;99.90;;;;;;6187852;23;20035;-76
2022/12/21 18:23:50;;;;;;;;;;;;;;;;;;;;;
2022/12/21 18:26:49;;;;;;;38.53;23.23;;;7.50;99.90;;;;;;6039839;23;20042;-77
2022/12/21 18:29:21;;;;;;;41.50;24.50;;;7.70;99.90;;;;;;6050398;23;20149;-77
2022/12/21 18:32:02;;;;;;;41.25;23.45;;;7.70;99.90;;;;;;6191719;23;20044;-77
2022/12/21 18:39:12;;;;;;;;;;;;;;;;;;;;;
2022/12/21 18:49:17;;;;;;;40.28;22.38;;;7.60;99.90;;;;;;6173076;23;20362;-78
2022/12/21 18:51:49;;;;;;;37.80;19.27;;;7.80;99.90;;;;;;6191035;23;20103;-79
2022/12/21 18:54:24;;;;;;;38.75;22.00;;;7.70;99.90;;;;;;6192465;23;20400;-79
2022/12/21 18:56:55;;;;;;;40.67;22.35;;;6.30;99.90;;;;;;6169263;23;20012;-80
2022/12/21 19:00:00;;;;;;;;;;;;;;;;;;;;;
2022/12/21 19:14:02;;;;;;;42.80;21.75;;;7.80;99.90;;;;;;6067714;23;20025;-80
2022/12/21 19:16:59;;;;;;;42.10;21.20;;;7.70;99.90;;;;;;6154965;23;20072;-79
2022/12/21 19:19:38;;;;;;;40.90;20.98;;;6.70;99.90;;;;;;6199473;22;20007;-79
2022/12/21 19:26:21;;;;;;;44.42;21.17;;;7.10;99.90;;;;;;6069044;23;20241;-78
2022/12/21 19:28:56;;;;;;;44.30;21.20;;;8.20;99.90;;;;;;6130557;23;20264;-78
2022/12/21 19:35:23;;;;;;;35.33;19.27;;;8.00;99.90;;;;;;6248945;22;20200;-79
2022/12/21 19:38:37;;;;;;;45.40;23.33;;;7.80;99.90;;;;;;6218413;22;20038;-79
2022/12/21 19:42:16;;;;;;;;;;;;;;;;;;;;;
2022/12/21 19:44:45;;;;;;;38.58;19.35;;;7.50;99.90;;;;;;6228714;22;20042;-78